Happy Valentine's Day! 

Flight Track Log - Related Links

Times and Time Zones

All times are in EDT time to prevent confusion due to time zone crossing. See the SWA558 flight status page for this flight to view local times or setup timezone preferences in your user account.


Time Position Orientation Groundspeed Altitude Reporting Facility
EDT Latitude Longitude Course Direction KTS MPH feet Rate Location/Type
Sun 12:36:55 PM 26.5261 -81.8969 350° North 246 283 4,900  Level Miami Center
Sun 12:37:55 PM 26.6067 -81.9142 349° North 246 283 8,100 3,000 Climbing Miami Center
Sun 12:38:55 PM 26.6925 -81.9111 North 268 308 10,900 2,600 Climbing Miami Center
Sun 12:39:55 PM 26.7914 -81.8850 13° North 303 349 13,300 2,700 Climbing Miami Center
Sun 12:40:55 PM 26.8894 -81.8311 26° Northeast 353 406 16,300 3,000 Climbing Miami Center
Sun 12:41:00 PM 27.3491 -81.8914 347° North  Level FlightAware Approximate
Sun 12:41:55 PM 26.9975 -81.8450 353° North 370 426 19,300  Level Miami Center
Sun 12:42:00 PM 27.4615 -81.9190 350° North  Level FlightAware Approximate
Sun 12:43:00 PM 27.1203 -81.9000 North  Level FlightAware Approximate
Sun 12:43:55 PM 27.2297 -81.8853 North 406 467 23,100  Level Miami Center
Sun 12:44:55 PM 27.3361 -81.8900 358° North 417 480 24,200 950 Climbing Miami Center
Sun 12:45:55 PM 27.4528 -81.8389 21° North 423 487 25,000 1,050 Climbing Miami Center
Sun 12:46:55 PM 27.5839 -81.7814 21° North 451 519 26,300 1,350 Climbing Miami Center
Sun 12:47:55 PM 27.7064 -81.7422 16° North 457 526 27,700 1,400 Climbing Miami Center
Sun 12:48:55 PM 27.8128 -81.8053 332° Northwest 407 468 29,100 1,463 Climbing Miami Center
Sun 12:51:20 PM 28.0611 -81.9753 329° Northwest 434 499 32,700 1,434 Climbing Jacksonville Center
Sun 12:52:20 PM 28.1617 -82.0450 329° Northwest 429 494 34,000 650 Climbing Jacksonville Center
Sun 12:53:20 PM 28.2622 -82.1150 328° Northwest 429 494 34,000 500 Level Jacksonville Center
Sun 12:54:20 PM 28.3650 -82.1825 330° Northwest 429 494 35,000 1,450 Climbing Jacksonville Center
Sun 12:55:20 PM 28.4736 -82.2267 340° North 422 486 36,900 1,500 Climbing Jacksonville Center
Sun 12:56:20 PM 28.5803 -82.2686 341° North 412 474 38,000 550 Climbing Jacksonville Center
Sun 12:57:20 PM 28.6869 -82.3128 340° North 412 474 38,000  Level Jacksonville Center
Sun 12:58:20 PM 28.7789 -82.3478 342° North 407 468 38,000  Level Jacksonville Center
Sun 12:59:20 PM 28.8856 -82.3897 341° North 402 463 38,000  Level Jacksonville Center
Sun 01:00:20 PM 28.9903 -82.4344 340° North 402 463 38,000  Level Jacksonville Center
Sun 01:01:20 PM 29.0947 -82.4767 341° North 402 463 38,000  Level Jacksonville Center
Sun 01:02:20 PM 29.1992 -82.5192 340° North 402 463 38,000  Level Jacksonville Center
Sun 01:03:20 PM 29.3058 -82.5617 341° North 402 463 38,000  Level Jacksonville Center
Sun 01:04:20 PM 29.4122 -82.6089 339° North 402 463 38,000  Level Jacksonville Center
Sun 01:05:20 PM 29.5314 -82.6586 340° North 418 481 38,000  Level Jacksonville Center
Sun 01:06:20 PM 29.6400 -82.7061 339° North 410 472 38,000  Level Jacksonville Center
Sun 01:07:20 PM 29.7486 -82.7514 340° North 410 472 38,000  Level Jacksonville Center
Sun 01:08:20 PM 29.8572 -82.7944 341° North 410 472 38,000  Level Jacksonville Center
Sun 01:09:20 PM 29.9553 -82.8350 340° North 410 472 38,000  Level Jacksonville Center
Sun 01:10:20 PM 30.0661 -82.8781 341° North 410 472 38,000  Level Jacksonville Center
Sun 01:11:20 PM 30.1747 -82.9239 340° North 410 472 38,000 200 Level Jacksonville Center
Sun 01:12:20 PM 30.2875 -82.9694 341° North 415 478 38,400 700 Climbing Jacksonville Center
Sun 01:13:20 PM 30.3958 -83.0178 339° North 415 478 39,400 800 Climbing Jacksonville Center
Sun 01:14:20 PM 30.5064 -83.0636 340° North 410 472 40,000 300 Climbing Jacksonville Center
Sun 01:15:20 PM 30.6172 -83.1025 343° North 410 472 40,000  Level Jacksonville Center
Sun 01:16:20 PM 30.7319 -83.1392 345° North 410 472 40,000  Level Jacksonville Center
Sun 01:17:20 PM 30.8572 -83.1781 345° North 417 480 40,000  Level Jacksonville Center
Sun 01:18:20 PM 30.9739 -83.2147 345° North 417 480 40,000  Level Jacksonville Center
Sun 01:19:20 PM 31.0867 -83.2492 345° North 417 480 40,000  Level Jacksonville Center
Sun 01:22:03 PM 31.3919 -83.3431 345° North 415 478 40,000  Level Atlanta Center
Sun 01:23:03 PM 31.5069 -83.3764 346° North 421 484 40,000  Level Atlanta Center
Sun 01:24:03 PM 31.6386 -83.4144 346° North 421 484 40,000  Level Atlanta Center
Sun 01:25:03 PM 31.7556 -83.4503 345° North 421 484 40,000  Level Atlanta Center
Sun 01:26:03 PM 31.8769 -83.4886 345° North 427 491 40,000  Level Atlanta Center
Sun 01:27:03 PM 31.9961 -83.5294 344° North 437 503 40,000  Level Atlanta Center
Sun 01:28:03 PM 32.1131 -83.5656 345° North 437 503 40,000  Level Atlanta Center
Sun 01:29:03 PM 32.2364 -83.6042 345° North 437 503 40,000  Level Atlanta Center
Sun 01:30:03 PM 32.3556 -83.6431 345° North 437 503 40,000  Level Atlanta Center
Sun 01:31:03 PM 32.4767 -83.6794 346° North 437 503 40,000  Level Atlanta Center
Sun 01:32:03 PM 32.5978 -83.7183 345° North 442 509 40,000  Level Atlanta Center
Sun 01:33:03 PM 32.7211 -83.7572 345° North 442 509 40,000  Level Atlanta Center
Sun 01:34:03 PM 32.8442 -83.7942 346° North 442 509 40,000  Level Atlanta Center
Sun 01:35:03 PM 32.9653 -83.8333 345° North 447 514 40,000  Level Atlanta Center
Sun 01:36:03 PM 33.0739 -83.8703 344° North 447 514 40,000  Level Atlanta Center
Sun 01:37:03 PM 33.1992 -83.9097 345° North 454 522 40,000  Level Atlanta Center
Sun 01:38:03 PM 33.3203 -83.9494 345° North 454 522 40,000  Level Atlanta Center
Sun 01:39:03 PM 33.4456 -83.9892 345° North 454 522 40,000  Level Atlanta Center
Sun 01:40:03 PM 33.5814 -84.0314 345° North 454 522 40,000  Level Atlanta Center
Sun 01:41:03 PM 33.7067 -84.0714 345° North 459 528 40,000  Level Atlanta Center
Sun 01:42:03 PM 33.8339 -84.1114 345° North 459 528 40,000  Level Atlanta Center
Sun 01:43:03 PM 33.9633 -84.1514 346° North 465 535 40,000  Level Atlanta Center
Sun 01:44:03 PM 34.0906 -84.1944 344° North 470 541 40,000  Level Atlanta Center
Sun 01:45:03 PM 34.2158 -84.2347 345° North 470 541 40,000  Level Atlanta Center
Sun 01:46:03 PM 34.3408 -84.2753 345° North 470 541 40,000  Level Atlanta Center
Sun 01:47:03 PM 34.4681 -84.3211 343° North 470 541 40,000  Level Atlanta Center
Sun 01:48:03 PM 34.5953 -84.3617 345° North 470 541 40,000  Level Atlanta Center
Sun 01:49:03 PM 34.7203 -84.4053 344° North 470 541 40,000  Level Atlanta Center
Sun 01:50:03 PM 34.8456 -84.4436 346° North 470 541 40,000  Level Atlanta Center
Sun 01:51:03 PM 34.9539 -84.4822 344° North 470 541 40,000  Level Atlanta Center
Sun 01:52:03 PM 35.0808 -84.5261 344° North 462 532 40,000  Level Atlanta Center
Sun 01:53:03 PM 35.2081 -84.5675 345° North 457 526 40,000  Level Atlanta Center
Sun 01:54:03 PM 35.3331 -84.6089 345° North 457 526 40,000  Level Atlanta Center
Sun 01:55:03 PM 35.4581 -84.6506 345° North 457 526 40,000  Level Atlanta Center
Sun 01:56:03 PM 35.5892 -84.6950 345° North 462 532 40,000  Level Atlanta Center
Sun 01:57:03 PM 35.7164 -84.7369 345° North 468 539 40,000  Level Atlanta Center
Sun 01:58:03 PM 35.8536 -84.7842 344° North 468 539 40,000  Level Atlanta Center
Sun 02:00:14 PM 36.1378 -84.8822 344° North 473 544 40,000  Level Indianapolis Center
Sun 02:01:16 PM 36.2653 -84.9158 348° North 470 541 40,000  Level Indianapolis Center
Sun 02:02:17 PM 36.3922 -84.9467 349° North 467 537 40,000  Level Indianapolis Center
Sun 02:03:19 PM 36.5189 -84.9792 348° North 465 535 40,000  Level Indianapolis Center
Sun 02:04:21 PM 36.6456 -85.0114 348° North 466 536 40,000  Level Indianapolis Center
Sun 02:05:23 PM 36.7764 -85.0464 348° North 479 551 40,000  Level Indianapolis Center
Sun 02:06:24 PM 36.9075 -85.0789 349° North 481 554 40,000  Level Indianapolis Center
Sun 02:07:26 PM 37.0592 -85.1172 349° North 479 551 40,000  Level Indianapolis Center
Sun 02:08:28 PM 37.1897 -85.1519 348° North 478 550 40,000  Level Indianapolis Center
Sun 02:09:30 PM 37.3197 -85.1853 348° North 477 549 40,000  Level Indianapolis Center
Sun 02:10:31 PM 37.4492 -85.2186 348° North 473 544 40,000  Level Indianapolis Center
Sun 02:11:33 PM 37.5769 -85.2522 348° North 470 541 40,000 -581 Level Indianapolis Center
Sun 02:12:35 PM 37.7033 -85.2861 348° North 466 536 38,800 -1,610 Descending Indianapolis Center
Sun 02:13:36 PM 37.8350 -85.3239 347° North 476 548 36,700 -2,000 Descending Indianapolis Center
Sun 02:14:38 PM 37.9742 -85.3569 349° North 499 574 34,700 -1,306 Descending Indianapolis Center
Sun 02:15:40 PM 38.1339 -85.3969 349° North 487 560 34,000 -339 Descending Indianapolis Center
Sun 02:16:42 PM 38.2653 -85.4331 348° North 482 555 34,000  Level Indianapolis Center
Sun 02:17:44 PM 38.3931 -85.4681 348° North 473 544 34,000  Level Indianapolis Center
Sun 02:18:46 PM 38.5208 -85.5019 348° North 468 539 34,000 -146 Level Indianapolis Center
Sun 02:19:47 PM 38.6467 -85.5361 348° North 465 535 33,700 -1,171 Descending Indianapolis Center
Sun 02:20:49 PM 38.7764 -85.5694 349° North 472 543 31,600 -2,468 Descending Indianapolis Center
Sun 02:21:51 PM 38.9269 -85.6119 348° North 461 531 28,600 -2,613 Descending Indianapolis Center
Sun 02:22:53 PM 39.0506 -85.6453 348° North 455 524 26,200 -1,258 Descending Indianapolis Center
Sun 02:23:55 PM 39.1656 -85.6764 348° North 431 496 26,000 -97 Descending Indianapolis Center
Sun 02:24:57 PM 39.2800 -85.7081 348° North 422 486 26,000  Level Indianapolis Center
Sun 02:25:59 PM 39.3956 -85.7397 348° North 423 487 26,000 -290 Level Indianapolis Center
Sun 02:27:01 PM 39.5114 -85.7722 348° North 423 487 25,400 -774 Descending Indianapolis Center
Sun 02:28:03 PM 39.6267 -85.8042 348° North 424 488 24,400 -683 Descending Indianapolis Center
Sun 02:29:04 PM 39.7428 -85.8367 348° North 410 472 24,000 -195 Descending Indianapolis Center
Sun 02:30:06 PM 39.8608 -85.8697 348° North 420 483 24,000  Level Indianapolis Center
Sun 02:31:08 PM 40.0003 -85.9086 348° North 432 497 24,000  Level Indianapolis Center
Sun 02:32:10 PM 40.1139 -85.9406 348° North 433 498 24,000  Level Indianapolis Center
Sun 02:32:46 PM 40.1836 -85.9586 349° North 433 498 24,000 -612 Level Chicago Center
Sun 02:33:48 PM 40.3006 -85.9925 348° North 431 496 23,000 -968 Descending Chicago Center
Sun 02:34:50 PM 40.4158 -86.0247 348° North 424 488 22,000 -968 Descending Chicago Center
Sun 02:35:52 PM 40.5311 -86.0572 348° North 421 484 21,000 -968 Descending Chicago Center
Sun 02:36:54 PM 40.6461 -86.0544 North 416 479 20,000 -484 Descending Chicago Center
Sun 02:37:56 PM 40.7842 -86.0525 North 412 474 20,000 -48 Level Chicago Center
Sun 02:38:58 PM 40.8981 -86.0494 North 410 472 19,900 -1,113 Descending Chicago Center
Sun 02:40:00 PM 40.9781 -86.1289 323° Northwest 380 437 17,700 -2,208 Descending Chicago Center
Sun 02:41:03 PM 41.0072 -86.2547 287° West 360 414 15,300 -2,323 Descending Chicago Center
Sun 02:42:04 PM 41.0356 -86.3781 287° West 352 405 12,900 -1,805 Descending Chicago Center
Sun 02:43:06 PM 41.0739 -86.4892 295° West 336 387 11,600 -1,113 Descending Chicago Center
Sun 02:44:08 PM 41.1486 -86.6031 311° West 342 394 10,600 -726 Descending Chicago Center
Sun 02:45:10 PM 41.2103 -86.6981 311° West 340 391 10,100 -242 Descending Chicago Center
Sun 02:46:12 PM 41.2733 -86.7911 312° West 337 388 10,100 -48 Level Chicago Center
Sun 02:47:14 PM 41.3358 -86.8836 312° West 338 389 10,000 -336 Descending Chicago Center
Sun 02:48:17 PM 41.3900 -86.9672 311° West 311 358 9,400 -1,056 Descending Chicago Center
Sun 02:49:19 PM 41.4394 -87.0675 303° West 285 328 7,800 -1,258 Descending Chicago Center
Sun 02:50:21 PM 41.4692 -87.1583 294° West 276 318 6,800 -1,000 Descending Chicago Center
Sun 02:51:13 PM 41.5000 -87.2333 299° West 264 304 5,900 -966 Descending Chicago TRACON
Sun 02:52:19 PM 41.5333 -87.3333 294° West 260 299 4,900 -898 Descending Chicago TRACON
Sun 02:53:20 PM 41.5500 -87.4167 285° West 258 297 4,000 -446 Descending Chicago TRACON
Sun 02:54:20 PM 41.5833 -87.5167 294° West 256 295 4,000 -105 Level Chicago TRACON
Sun 02:55:14 PM 41.6167 -87.5833 304° West 258 297 3,800 -338 Descending Chicago TRACON
Sun 02:55:31 PM 41.6206 -87.6086 282° West 258 297 3,600 -727 Descending Chicago Center
Sun 02:56:20 PM 41.6500 -87.6833 298° West 266 306 3,000 -350 Descending Chicago TRACON
Sun 02:57:14 PM 41.6667 -87.7667 285° West 227 261 3,000  Level Chicago TRACON
Sun 02:58:08 PM 41.6833 -87.8167 294° West 188 216 3,000 -474 Level Chicago TRACON
Sun 02:59:08 PM 41.7333 -87.8167 360° North 170 196 2,100 -857 Descending Chicago TRACON
Sun 03:00:14 PM 41.7667 -87.7833 37° Northeast 139 160 1,200 -818 Descending Chicago TRACON
Sun 03:02:00 PM 41.7833 -87.7500 45° Northeast  Level FlightAware Approximate

Login

Don't have an account? Register now (free) for customized features, flight alerts, and more!